createdAt,value
2022-10-14T00:04:40.469Z,15.53
2022-10-14T00:09:42.901Z,15.52
2022-10-14T00:14:45.077Z,15.51
2022-10-14T00:19:46.668Z,15.50
2022-10-14T00:24:48.717Z,15.49
2022-10-14T00:29:50.486Z,15.49
2022-10-14T00:34:52.316Z,15.49
2022-10-14T00:39:57.006Z,15.47
2022-10-14T00:45:10.887Z,15.47
2022-10-14T00:50:16.055Z,15.45
2022-10-14T00:55:19.612Z,15.44
2022-10-14T01:00:22.808Z,15.42
2022-10-14T01:05:32.003Z,15.40
2022-10-14T01:10:47.322Z,15.37
2022-10-14T01:16:04.922Z,15.34
2022-10-14T01:21:24.750Z,15.31
2022-10-14T01:26:37.883Z,15.30
2022-10-14T01:32:03.962Z,15.30
2022-10-14T01:37:15.504Z,15.28
2022-10-14T01:42:23.310Z,15.29
2022-10-14T01:47:29.461Z,15.28
2022-10-14T01:52:47.270Z,15.26
2022-10-14T01:57:52.219Z,15.27
2022-10-14T02:02:53.835Z,15.28
2022-10-14T02:08:27.450Z,15.26
2022-10-14T02:13:55.341Z,15.27
2022-10-14T02:19:23.349Z,15.25
2022-10-14T02:24:29.526Z,15.24
2022-10-14T02:29:33.539Z,15.23
2022-10-14T02:34:37.655Z,15.23
2022-10-14T02:39:54.751Z,15.21
2022-10-14T02:45:01.229Z,15.21
2022-10-14T02:50:03.715Z,15.21
2022-10-14T02:55:06.910Z,15.21
2022-10-14T03:00:09.479Z,15.21
2022-10-14T03:05:11.227Z,15.22
2022-10-14T03:10:14.343Z,15.23
2022-10-14T03:15:16.729Z,15.24
2022-10-14T03:20:18.585Z,15.26
2022-10-14T03:25:25.882Z,15.26
2022-10-14T03:30:35.415Z,15.26
2022-10-14T03:35:44.810Z,15.27
2022-10-14T03:40:49.895Z,15.28
2022-10-14T03:45:52.491Z,15.26
2022-10-14T03:50:56.783Z,15.25
2022-10-14T03:55:59.577Z,15.23
2022-10-14T04:01:01.790Z,15.22
2022-10-14T04:06:31.547Z,15.18
2022-10-14T04:11:57.643Z,15.13
2022-10-14T04:17:33.387Z,15.08
2022-10-14T04:23:01.059Z,15.05
2022-10-14T04:28:22.590Z,15.04
2022-10-14T04:33:53.500Z,15.03
2022-10-14T04:39:23.281Z,15.01
2022-10-14T04:44:25.747Z,15.01
2022-10-14T04:49:29.614Z,15.01
2022-10-14T04:54:40.679Z,15.00
2022-10-14T04:59:42.543Z,15.00
2022-10-14T05:04:50.252Z,14.98
2022-10-14T05:09:56.325Z,15.00
2022-10-14T05:15:09.534Z,15.00
2022-10-14T05:20:22.595Z,15.00
2022-10-14T05:25:28.342Z,15.00
2022-10-14T05:30:34.709Z,15.01
2022-10-14T05:35:58.173Z,15.02
2022-10-14T05:41:01.818Z,14.99
2022-10-14T05:46:03.899Z,14.98
2022-10-14T05:51:11.079Z,14.96
2022-10-14T05:56:13.694Z,14.97
2022-10-14T06:01:15.783Z,14.91
2022-10-14T06:06:18.884Z,14.90
2022-10-14T06:11:20.776Z,14.89
2022-10-14T06:16:22.528Z,14.92
2022-10-14T06:21:24.174Z,14.92
2022-10-14T06:26:25.878Z,14.94
2022-10-14T06:31:31.994Z,14.91
2022-10-14T06:36:35.236Z,14.91
2022-10-14T06:41:37.055Z,14.93
2022-10-14T06:46:38.640Z,14.92
2022-10-14T06:51:40.604Z,14.88
2022-10-14T06:56:42.364Z,14.87
2022-10-14T07:01:44.109Z,14.87
2022-10-14T07:06:45.730Z,14.85
2022-10-14T07:11:47.478Z,14.86
2022-10-14T07:16:49.171Z,14.87
2022-10-14T07:21:50.735Z,14.90
2022-10-14T07:26:52.642Z,14.94
2022-10-14T07:31:55.005Z,14.98
2022-10-14T07:36:56.664Z,15.04
2022-10-14T07:41:58.246Z,15.07
2022-10-14T07:47:01.733Z,15.10
2022-10-14T07:52:03.442Z,15.12
2022-10-14T07:57:05.059Z,15.20
2022-10-14T08:02:06.677Z,15.27
2022-10-14T08:07:08.525Z,15.36
2022-10-14T08:12:10.416Z,15.44
2022-10-14T08:17:12.190Z,15.49
2022-10-14T08:22:13.805Z,15.56
2022-10-14T08:27:16.359Z,15.63
2022-10-14T08:32:17.992Z,15.70
2022-10-14T08:37:19.770Z,15.76
2022-10-14T08:42:34.997Z,15.81
2022-10-14T08:47:43.034Z,15.87
2022-10-14T08:52:55.704Z,15.93
2022-10-14T08:58:27.284Z,15.97
2022-10-14T09:03:33.784Z,16.04
2022-10-14T09:08:43.185Z,16.11
2022-10-14T09:13:49.201Z,16.19
2022-10-14T09:18:55.131Z,16.26
2022-10-14T09:24:01.433Z,16.35
2022-10-14T09:29:03.151Z,16.43
2022-10-14T09:34:07.996Z,16.54
2022-10-14T09:39:12.219Z,16.62
2022-10-14T09:44:22.854Z,16.71
2022-10-14T09:49:46.515Z,16.78
2022-10-14T09:54:55.393Z,16.84
2022-10-14T10:00:03.723Z,16.89
2022-10-14T10:05:13.703Z,16.95
2022-10-14T10:10:21.122Z,17.02
2022-10-14T10:15:22.984Z,17.10
2022-10-14T10:20:32.105Z,17.22
2022-10-14T10:25:33.948Z,17.32
2022-10-14T10:30:43.466Z,17.41
2022-10-14T10:36:05.378Z,17.46
2022-10-14T10:41:37.198Z,17.50
2022-10-14T10:47:06.311Z,17.55
2022-10-14T10:52:30.624Z,17.60
2022-10-14T10:57:41.125Z,17.63
2022-10-14T11:02:55.049Z,17.65
2022-10-14T11:08:57.329Z,17.66
2022-10-14T11:14:12.955Z,17.80
2022-10-14T11:19:29.927Z,17.88
2022-10-14T11:24:54.537Z,17.93
2022-10-14T11:29:56.774Z,18.03
2022-10-14T11:35:18.383Z,18.12
2022-10-14T11:40:27.139Z,18.21
2022-10-14T11:45:47.026Z,18.29
2022-10-14T11:50:56.564Z,18.36
2022-10-14T11:56:09.610Z,18.47
2022-10-14T12:01:14.335Z,18.56
2022-10-14T12:06:21.662Z,18.65
2022-10-14T12:11:53.253Z,18.70
2022-10-14T12:16:55.938Z,18.74
2022-10-14T12:22:16.296Z,18.81
2022-10-14T12:27:19.601Z,18.87
2022-10-14T12:32:30.675Z,18.86
2022-10-14T12:37:43.143Z,18.90
2022-10-14T12:42:44.755Z,18.95
2022-10-14T12:48:03.156Z,18.99
2022-10-14T12:53:24.929Z,18.97
2022-10-14T12:58:37.078Z,18.97
2022-10-14T13:03:46.241Z,19.01
2022-10-14T13:09:12.940Z,19.07
2022-10-14T13:14:25.610Z,19.11
2022-10-14T13:19:33.428Z,19.12
2022-10-14T13:24:44.033Z,19.08
2022-10-14T13:30:08.700Z,19.04
2022-10-14T13:35:18.614Z,19.04
2022-10-14T13:40:35.743Z,19.06
2022-10-14T13:45:45.434Z,19.07
2022-10-14T13:50:50.799Z,19.07
2022-10-14T13:55:54.524Z,19.09
2022-10-14T14:00:59.573Z,19.11
2022-10-14T14:06:01.964Z,19.11
2022-10-14T14:11:22.039Z,19.11
2022-10-14T14:16:36.928Z,19.12
2022-10-14T14:21:38.530Z,19.12
2022-10-14T14:26:40.164Z,19.10
2022-10-14T14:37:43.512Z,19.08
2022-10-14T14:42:35.944Z,19.05
2022-10-14T14:47:37.834Z,19.03
2022-10-14T14:52:41.377Z,19.01
2022-10-14T14:57:45.055Z,19.01
2022-10-14T15:02:49.760Z,18.99
2022-10-14T15:07:51.797Z,18.98
2022-10-14T15:12:56.414Z,18.97
2022-10-14T15:18:22.099Z,18.94
2022-10-14T15:23:40.310Z,18.91
2022-10-14T15:28:41.930Z,18.90
2022-10-14T15:33:43.655Z,18.89
2022-10-14T15:38:45.446Z,18.87
2022-10-14T15:43:48.212Z,18.87
2022-10-14T15:48:52.473Z,18.84
2022-10-14T15:53:54.302Z,18.81
2022-10-14T15:58:55.939Z,18.79
2022-10-14T16:03:58.007Z,18.75
2022-10-14T16:08:59.692Z,18.73
2022-10-14T16:14:01.277Z,18.70
2022-10-14T16:19:03.625Z,18.67
2022-10-14T16:24:06.495Z,18.65
2022-10-14T16:29:08.219Z,18.64
2022-10-14T16:34:10.207Z,18.62
2022-10-14T16:39:13.150Z,18.58
2022-10-14T16:44:27.675Z,18.51
2022-10-14T16:49:29.425Z,18.47
2022-10-14T16:54:31.250Z,18.43
2022-10-14T16:59:34.909Z,18.39
2022-10-14T17:04:37.563Z,18.36
2022-10-14T17:09:39.801Z,18.34
2022-10-14T17:14:41.538Z,18.30
2022-10-14T17:19:43.495Z,18.25
2022-10-14T17:24:45.400Z,18.18
2022-10-14T17:29:47.878Z,18.15
2022-10-14T17:34:53.314Z,18.10
2022-10-14T17:39:55.434Z,18.05
2022-10-14T17:44:57.200Z,18.04
2022-10-14T17:49:59.385Z,18.02
2022-10-14T17:55:01.644Z,18.01
2022-10-14T18:00:04.376Z,18.03
2022-10-14T18:05:13.768Z,18.02
2022-10-14T18:10:15.608Z,18.00
2022-10-14T18:15:17.469Z,17.92
2022-10-14T18:20:19.297Z,17.90
2022-10-14T18:25:21.325Z,17.88
2022-10-14T18:30:22.919Z,17.86
2022-10-14T18:35:24.583Z,17.84
2022-10-14T18:40:26.381Z,17.85
2022-10-14T18:45:27.993Z,17.84
2022-10-14T18:50:29.650Z,17.80
2022-10-14T18:55:31.347Z,17.77
2022-10-14T19:00:33.576Z,17.76
2022-10-14T19:05:36.293Z,17.72
2022-10-14T19:10:38.366Z,17.66
2022-10-14T19:15:51.387Z,17.59
2022-10-14T19:20:56.416Z,17.53
2022-10-14T19:25:59.320Z,17.48
2022-10-14T19:31:09.193Z,17.41
2022-10-14T19:36:16.639Z,17.40
2022-10-14T19:41:18.936Z,17.39
2022-10-14T19:46:27.551Z,17.37
2022-10-14T19:51:29.254Z,17.36
2022-10-14T19:56:31.266Z,17.37
2022-10-14T20:01:33.220Z,17.35
2022-10-14T20:06:36.755Z,17.33
2022-10-14T20:11:38.419Z,17.32
2022-10-14T20:16:40.201Z,17.30
2022-10-14T20:21:41.940Z,17.30
2022-10-14T20:26:43.742Z,17.30
2022-10-14T20:31:46.811Z,17.27
2022-10-14T20:36:48.714Z,17.27
2022-10-14T20:41:50.728Z,17.27
2022-10-14T20:46:52.595Z,17.30
2022-10-14T20:51:54.238Z,17.31
2022-10-14T20:56:55.987Z,17.31
2022-10-14T21:01:57.577Z,17.28
2022-10-14T21:06:59.174Z,17.26
2022-10-14T21:12:00.820Z,17.27
2022-10-14T21:17:02.846Z,17.23
2022-10-14T21:22:04.437Z,17.19
2022-10-14T21:27:06.231Z,17.18
2022-10-14T21:32:08.553Z,17.18
2022-10-14T21:37:10.152Z,17.17
2022-10-14T21:42:11.814Z,17.16
2022-10-14T21:47:14.413Z,17.15
2022-10-14T21:52:17.229Z,17.11
2022-10-14T21:57:18.934Z,17.07
2022-10-14T22:02:22.643Z,17.05
2022-10-14T22:07:24.635Z,17.04
2022-10-14T22:12:28.707Z,17.02
2022-10-14T22:17:30.728Z,16.97
2022-10-14T22:22:32.366Z,16.97
2022-10-14T22:27:33.957Z,16.96
2022-10-14T22:32:35.614Z,16.94
2022-10-14T22:37:37.216Z,16.98
2022-10-14T22:42:42.075Z,17.00
2022-10-14T22:47:44.186Z,16.99
2022-10-14T22:52:45.713Z,17.02
2022-10-14T22:57:47.618Z,17.06
2022-10-14T23:02:49.259Z,17.08
2022-10-14T23:07:50.901Z,17.06
2022-10-14T23:12:52.557Z,17.04
2022-10-14T23:17:54.516Z,17.00
2022-10-14T23:22:56.087Z,16.96
2022-10-14T23:27:57.680Z,16.95
2022-10-14T23:32:59.275Z,16.92
2022-10-14T23:38:00.921Z,16.90
2022-10-14T23:43:02.472Z,16.88
2022-10-14T23:48:04.364Z,16.85
2022-10-14T23:53:05.929Z,16.82
2022-10-14T23:58:07.627Z,16.78
